createdAt,value
2018-10-06T00:00:19.823Z,1010.34
2018-10-06T00:01:19.736Z,1010.31
2018-10-06T00:02:19.664Z,1010.30
2018-10-06T00:03:19.576Z,1010.29
2018-10-06T00:04:19.499Z,1010.25
2018-10-06T00:05:19.411Z,1010.24
2018-10-06T00:06:19.325Z,1010.21
2018-10-06T00:07:19.238Z,1010.20
2018-10-06T00:08:19.161Z,1010.16
2018-10-06T00:09:19.075Z,1010.13
2018-10-06T00:10:19.000Z,1010.11
2018-10-06T00:11:18.915Z,1010.11
2018-10-06T00:12:18.825Z,1010.10
2018-10-06T00:13:18.750Z,1010.08
2018-10-06T00:14:18.662Z,1010.08
2018-10-06T00:15:18.576Z,1010.10
2018-10-06T00:16:18.501Z,1010.07
2018-10-06T00:17:18.413Z,1010.05
2018-10-06T00:18:18.338Z,1010.05
2018-10-06T00:19:18.252Z,1010.02
2018-10-06T00:20:18.164Z,1010.02
2018-10-06T00:21:18.088Z,1010.03
2018-10-06T00:22:18.004Z,1010.02
2018-10-06T00:23:17.927Z,1010.02
2018-10-06T00:24:17.839Z,1010.06
2018-10-06T00:25:17.752Z,1010.00
2018-10-06T00:26:17.676Z,1010.01
2018-10-06T00:27:17.602Z,1009.99
2018-10-06T00:28:17.502Z,1009.99
2018-10-06T00:29:17.428Z,1009.99
2018-10-06T00:30:17.342Z,1009.99
2018-10-06T00:31:17.265Z,1009.98
2018-10-06T00:32:17.178Z,1009.97
2018-10-06T00:33:17.090Z,1010.07
2018-10-06T00:34:17.017Z,1010.03
2018-10-06T00:35:16.928Z,1010.07
2018-10-06T00:36:16.854Z,1010.01
2018-10-06T00:37:16.772Z,1010.04
2018-10-06T00:38:16.678Z,1010.02
2018-10-06T00:39:16.605Z,1009.99
2018-10-06T00:40:16.516Z,1009.94
2018-10-06T00:41:16.430Z,1009.91
2018-10-06T00:42:16.353Z,1009.88
2018-10-06T00:43:16.266Z,1009.84
2018-10-06T00:44:16.182Z,1009.86
2018-10-06T00:45:16.104Z,1009.85
2018-10-06T00:46:16.016Z,1009.83
2018-10-06T00:47:16.029Z,1009.81
2018-10-06T00:48:15.855Z,1009.82
2018-10-06T00:49:15.766Z,1009.79
2018-10-06T00:50:15.692Z,1009.75
2018-10-06T00:51:15.604Z,1009.75
2018-10-06T00:52:15.521Z,1009.72
2018-10-06T00:53:15.441Z,1009.77
2018-10-06T00:54:15.355Z,1009.73
2018-10-06T00:55:15.281Z,1009.78
2018-10-06T00:56:15.192Z,1009.71
2018-10-06T00:57:15.106Z,1009.74
2018-10-06T00:58:15.031Z,1009.69
2018-10-06T00:59:14.945Z,1009.72
2018-10-06T01:00:14.869Z,1009.69
2018-10-06T01:01:14.781Z,1009.70
2018-10-06T01:02:14.692Z,1009.71
2018-10-06T01:03:14.618Z,1009.65
2018-10-06T01:04:14.531Z,1009.69
2018-10-06T01:05:14.445Z,1009.66
2018-10-06T01:06:14.368Z,1009.64
2018-10-06T01:07:14.281Z,1009.66
2018-10-06T01:08:14.195Z,1009.69
2018-10-06T01:09:14.118Z,1009.63
2018-10-06T01:10:14.032Z,1009.64
2018-10-06T01:11:13.957Z,1009.61
2018-10-06T01:12:13.868Z,1009.62
2018-10-06T01:13:13.781Z,1009.61
2018-10-06T01:14:13.707Z,1009.56
2018-10-06T01:15:13.619Z,1009.53
2018-10-06T01:16:13.544Z,1009.49
2018-10-06T01:17:13.460Z,1009.49
2018-10-06T01:18:13.369Z,1009.45
2018-10-06T01:19:13.297Z,1009.44
2018-10-06T01:20:13.208Z,1009.42
2018-10-06T01:21:13.121Z,1009.42
2018-10-06T01:22:13.045Z,1009.40
2018-10-06T01:23:12.958Z,1009.38
2018-10-06T01:24:12.885Z,1009.40
2018-10-06T01:25:12.796Z,1009.44
2018-10-06T01:26:12.709Z,1009.40
2018-10-06T01:27:12.645Z,1009.40
2018-10-06T01:28:12.546Z,1009.41
2018-10-06T01:29:12.460Z,1009.44
2018-10-06T01:30:12.385Z,1009.43
2018-10-06T01:31:12.296Z,1009.45
2018-10-06T01:32:12.221Z,1009.44
2018-10-06T01:33:12.135Z,1009.41
2018-10-06T01:34:12.046Z,1009.41
2018-10-06T01:35:11.972Z,1009.44
2018-10-06T01:36:11.887Z,1009.41
2018-10-06T01:37:11.798Z,1009.39
2018-10-06T01:38:11.722Z,1009.42
2018-10-06T01:39:11.635Z,1009.38
2018-10-06T01:40:11.561Z,1009.37
2018-10-06T01:41:11.474Z,1009.40
2018-10-06T01:42:11.385Z,1009.41
2018-10-06T01:43:11.311Z,1009.38
2018-10-06T01:44:11.222Z,1009.38
2018-10-06T01:45:11.136Z,1009.34
2018-10-06T01:46:11.061Z,1009.34
2018-10-06T01:47:10.973Z,1009.31
2018-10-06T01:48:10.898Z,1009.31
2018-10-06T01:49:10.812Z,1009.32
2018-10-06T01:50:10.736Z,1009.31
2018-10-06T01:51:10.685Z,1009.31
2018-10-06T01:52:10.565Z,1009.33
2018-10-06T01:53:10.474Z,1009.32
2018-10-06T01:54:10.398Z,1009.32
2018-10-06T01:55:10.312Z,1009.28
2018-10-06T01:56:10.237Z,1009.32
2018-10-06T01:57:10.149Z,1009.31
2018-10-06T01:58:10.066Z,1009.27
2018-10-06T01:59:09.987Z,1009.26
2018-10-06T02:00:09.899Z,1009.24
2018-10-06T02:01:09.813Z,1009.22
2018-10-06T02:02:09.737Z,1009.26
2018-10-06T02:03:09.649Z,1009.20
2018-10-06T02:04:09.575Z,1009.20
2018-10-06T02:05:09.487Z,1009.17
2018-10-06T02:06:09.400Z,1009.15
2018-10-06T02:07:09.324Z,1009.17
2018-10-06T02:08:09.237Z,1009.14
2018-10-06T02:09:09.151Z,1009.11
2018-10-06T02:10:09.075Z,1009.09
2018-10-06T02:11:08.989Z,1009.08
2018-10-06T02:12:08.902Z,1009.10
2018-10-06T02:13:08.825Z,1009.03
2018-10-06T02:14:08.738Z,1009.04
2018-10-06T02:15:08.665Z,1009.06
2018-10-06T02:16:08.575Z,1009.04
2018-10-06T02:17:08.490Z,1009.00
2018-10-06T02:18:08.414Z,1009.00
2018-10-06T02:19:08.330Z,1009.01
2018-10-06T02:20:08.241Z,1009.03
2018-10-06T02:21:08.164Z,1008.99
2018-10-06T02:22:08.079Z,1009.00
2018-10-06T02:23:08.014Z,1009.02
2018-10-06T02:24:07.915Z,1008.99
2018-10-06T02:25:07.826Z,1008.99
2018-10-06T02:26:07.753Z,1008.95
2018-10-06T02:27:07.666Z,1008.97
2018-10-06T02:28:07.592Z,1008.95
2018-10-06T02:29:07.502Z,1008.91
2018-10-06T02:30:07.521Z,1008.86
2018-10-06T02:31:07.341Z,1008.84
2018-10-06T02:32:07.256Z,1008.83
2018-10-06T02:33:07.167Z,1008.85
2018-10-06T02:34:07.092Z,1008.86
2018-10-06T02:35:07.003Z,1008.85
2018-10-06T02:36:06.929Z,1008.87
2018-10-06T02:37:06.842Z,1008.87
2018-10-06T02:38:06.759Z,1008.82
2018-10-06T02:39:06.666Z,1008.79
2018-10-06T02:40:06.596Z,1008.79
2018-10-06T02:41:06.506Z,1008.74
2018-10-06T02:42:06.428Z,1008.75
2018-10-06T02:43:06.347Z,1008.74
2018-10-06T02:44:06.254Z,1008.72
2018-10-06T02:45:06.179Z,1008.71
2018-10-06T02:46:06.093Z,1008.67
2018-10-06T02:47:06.020Z,1008.70
2018-10-06T02:48:05.930Z,1008.66
2018-10-06T02:49:05.847Z,1008.68
2018-10-06T02:50:05.755Z,1008.64
2018-10-06T02:51:05.694Z,1008.66
2018-10-06T02:52:05.594Z,1008.63
2018-10-06T02:53:05.518Z,1008.65
2018-10-06T02:54:05.430Z,1008.63
2018-10-06T02:55:05.346Z,1008.59
2018-10-06T02:56:05.273Z,1008.60
2018-10-06T02:57:05.180Z,1008.59
2018-10-06T02:58:05.095Z,1008.59
2018-10-06T02:59:05.019Z,1008.57
2018-10-06T03:00:04.931Z,1008.63
2018-10-06T03:01:04.848Z,1008.59
2018-10-06T03:02:04.770Z,1008.59
2018-10-06T03:03:04.683Z,1008.56
2018-10-06T03:04:04.606Z,1008.56
2018-10-06T03:05:04.520Z,1008.55
2018-10-06T03:06:04.450Z,1008.52
2018-10-06T03:07:04.405Z,1008.51
2018-10-06T03:08:04.270Z,1008.51
2018-10-06T03:09:04.181Z,1008.46
2018-10-06T03:10:04.108Z,1008.46
2018-10-06T03:11:04.020Z,1008.46
2018-10-06T03:12:03.949Z,1008.43
2018-10-06T03:13:03.856Z,1008.45
2018-10-06T03:14:03.771Z,1008.44
2018-10-06T03:15:03.683Z,1008.46
2018-10-06T03:16:03.608Z,1008.44
2018-10-06T03:17:03.521Z,1008.46
2018-10-06T03:18:03.446Z,1008.46
2018-10-06T03:19:03.360Z,1008.49
2018-10-06T03:20:03.271Z,1008.42
2018-10-06T03:21:03.195Z,1008.41
2018-10-06T03:22:03.108Z,1008.41
2018-10-06T03:23:03.081Z,1008.41
2018-10-06T03:24:02.948Z,1008.38
2018-10-06T03:25:02.861Z,1008.38
2018-10-06T03:26:02.772Z,1008.39
2018-10-06T03:27:02.697Z,1008.36
2018-10-06T03:28:02.612Z,1008.38
2018-10-06T03:29:02.522Z,1008.36
2018-10-06T03:30:02.447Z,1008.35
2018-10-06T03:31:02.359Z,1008.34
2018-10-06T03:32:02.284Z,1008.34
2018-10-06T03:33:02.198Z,1008.31
2018-10-06T03:34:02.123Z,1008.32
2018-10-06T03:35:02.034Z,1008.33
2018-10-06T03:36:01.948Z,1008.29
2018-10-06T03:37:01.859Z,1008.29
2018-10-06T03:38:01.785Z,1008.28
2018-10-06T03:39:01.697Z,1008.26
2018-10-06T03:40:01.612Z,1008.24
2018-10-06T03:41:01.536Z,1008.25
2018-10-06T03:42:01.450Z,1008.23
2018-10-06T03:43:01.375Z,1008.22
2018-10-06T03:44:01.286Z,1008.24
2018-10-06T03:45:01.198Z,1008.24
2018-10-06T03:46:01.124Z,1008.24
2018-10-06T03:47:01.036Z,1008.25
2018-10-06T03:48:00.948Z,1008.28
2018-10-06T03:49:00.874Z,1008.22
2018-10-06T03:50:00.789Z,1008.21
2018-10-06T03:51:00.699Z,1008.18
2018-10-06T03:52:00.624Z,1008.19
2018-10-06T03:53:00.550Z,1008.16
2018-10-06T03:54:00.535Z,1008.15
2018-10-06T03:55:00.376Z,1008.15
2018-10-06T03:56:00.287Z,1008.12
2018-10-06T03:57:00.200Z,1008.12
2018-10-06T03:58:00.125Z,1008.07
2018-10-06T03:59:00.039Z,1008.11
2018-10-06T03:59:59.963Z,1008.11
2018-10-06T04:00:59.876Z,1008.11
2018-10-06T04:01:59.787Z,1008.08
2018-10-06T04:02:59.726Z,1008.07
2018-10-06T04:03:59.626Z,1008.03
2018-10-06T04:04:59.537Z,1008.05
2018-10-06T04:05:59.462Z,1008.07
2018-10-06T04:06:59.376Z,1008.03
2018-10-06T04:07:59.288Z,1008.06
2018-10-06T04:08:59.214Z,1008.05
2018-10-06T04:09:59.130Z,1008.00
2018-10-06T04:10:59.039Z,1008.06
2018-10-06T04:11:58.963Z,1008.05
2018-10-06T04:12:58.878Z,1008.02
2018-10-06T04:13:58.801Z,1008.01
2018-10-06T04:14:58.715Z,1008.02
2018-10-06T04:15:58.627Z,1007.95
2018-10-06T04:16:58.555Z,1007.97
2018-10-06T04:17:58.464Z,1007.94
2018-10-06T04:18:58.378Z,1007.97
2018-10-06T04:19:58.301Z,1008.00
2018-10-06T04:20:58.214Z,1007.95
2018-10-06T04:21:58.128Z,1007.98
2018-10-06T04:22:58.053Z,1007.96
2018-10-06T04:23:57.964Z,1008.00
2018-10-06T04:24:57.879Z,1008.00
2018-10-06T04:25:57.803Z,1007.98
2018-10-06T04:26:57.714Z,1007.97
2018-10-06T04:27:57.642Z,1008.01
2018-10-06T04:28:57.553Z,1007.97
2018-10-06T04:29:57.471Z,1007.95
2018-10-06T04:30:57.390Z,1008.02
2018-10-06T04:31:57.303Z,1008.00
2018-10-06T04:32:57.215Z,1007.98
2018-10-06T04:33:57.141Z,1007.99
2018-10-06T04:34:57.054Z,1007.96
2018-10-06T04:35:56.967Z,1007.98
2018-10-06T04:36:56.892Z,1007.98
2018-10-06T04:37:56.805Z,1007.98
2018-10-06T04:38:56.729Z,1007.93
2018-10-06T04:39:56.642Z,1007.97
2018-10-06T04:40:56.555Z,1007.91
2018-10-06T04:41:56.480Z,1007.92
2018-10-06T04:42:56.393Z,1007.91
2018-10-06T04:43:56.305Z,1007.89
2018-10-06T04:44:56.234Z,1007.91
2018-10-06T04:45:56.142Z,1007.89
2018-10-06T04:46:56.056Z,1007.90
2018-10-06T04:47:55.981Z,1007.87
2018-10-06T04:48:55.892Z,1007.84
2018-10-06T04:49:55.817Z,1007.80
2018-10-06T04:50:55.732Z,1007.83
2018-10-06T04:51:55.643Z,1007.82
2018-10-06T04:52:55.585Z,1007.76
2018-10-06T04:53:55.481Z,1007.79
2018-10-06T04:54:55.393Z,1007.76
2018-10-06T04:55:55.318Z,1007.80
2018-10-06T04:56:55.231Z,1007.78
2018-10-06T04:57:55.156Z,1007.76
2018-10-06T04:58:55.070Z,1007.77
2018-10-06T04:59:54.982Z,1007.76
2018-10-06T05:00:54.907Z,1007.73
2018-10-06T05:01:54.819Z,1007.74
2018-10-06T05:02:54.732Z,1007.72
2018-10-06T05:03:54.658Z,1007.73
2018-10-06T05:04:54.569Z,1007.72
2018-10-06T05:05:54.483Z,1007.68
2018-10-06T05:06:54.406Z,1007.70
2018-10-06T05:07:54.319Z,1007.72
2018-10-06T05:08:54.233Z,1007.71
2018-10-06T05:09:54.158Z,1007.68
2018-10-06T05:10:54.082Z,1007.66
2018-10-06T05:11:53.983Z,1007.66
2018-10-06T05:12:53.909Z,1007.66
2018-10-06T05:13:53.819Z,1007.64
2018-10-06T05:14:53.745Z,1007.66
2018-10-06T05:15:53.658Z,1007.66
2018-10-06T05:16:53.571Z,1007.67
2018-10-06T05:17:53.496Z,1007.65
2018-10-06T05:18:53.408Z,1007.63
2018-10-06T05:19:53.321Z,1007.65
2018-10-06T05:20:53.246Z,1007.63
2018-10-06T05:21:53.159Z,1007.64
2018-10-06T05:22:53.073Z,1007.63
2018-10-06T05:23:52.996Z,1007.64
2018-10-06T05:24:52.909Z,1007.68
2018-10-06T05:25:52.835Z,1007.69
2018-10-06T05:26:52.747Z,1007.69
2018-10-06T05:27:52.660Z,1007.70
2018-10-06T05:28:52.586Z,1007.70
2018-10-06T05:29:52.510Z,1007.70
2018-10-06T05:30:52.412Z,1007.71
2018-10-06T05:31:52.336Z,1007.69
2018-10-06T05:32:52.247Z,1007.67
2018-10-06T05:33:52.183Z,1007.66
2018-10-06T05:34:52.089Z,1007.68
2018-10-06T05:35:51.998Z,1007.68
2018-10-06T05:36:51.926Z,1007.66
2018-10-06T05:37:51.838Z,1007.64
2018-10-06T05:38:51.748Z,1007.67
2018-10-06T05:39:51.672Z,1007.63
2018-10-06T05:40:51.587Z,1007.64
2018-10-06T05:41:51.498Z,1007.64
2018-10-06T05:42:51.423Z,1007.65
2018-10-06T05:43:51.337Z,1007.63
2018-10-06T05:44:51.249Z,1007.65
2018-10-06T05:45:51.174Z,1007.60
2018-10-06T05:46:51.087Z,1007.65
2018-10-06T05:47:51.012Z,1007.64
2018-10-06T05:48:50.924Z,1007.64
2018-10-06T05:49:50.838Z,1007.64
2018-10-06T05:50:50.763Z,1007.64
2018-10-06T05:51:50.674Z,1007.61
2018-10-06T05:52:50.591Z,1007.61
2018-10-06T05:53:50.513Z,1007.61
2018-10-06T05:54:50.425Z,1007.63
2018-10-06T05:55:50.338Z,1007.59
2018-10-06T05:56:50.263Z,1007.61
2018-10-06T05:57:50.176Z,1007.59
2018-10-06T05:58:50.102Z,1007.60
2018-10-06T05:59:50.015Z,1007.60
2018-10-06T06:00:49.929Z,1007.60
2018-10-06T06:01:49.867Z,1007.63
2018-10-06T06:02:49.763Z,1007.60
2018-10-06T06:03:49.675Z,1007.65
2018-10-06T06:04:49.602Z,1007.63
2018-10-06T06:05:49.514Z,1007.64
2018-10-06T06:06:49.431Z,1007.64
2018-10-06T06:07:49.351Z,1007.66
2018-10-06T06:08:49.264Z,1007.59
2018-10-06T06:09:49.223Z,1007.62
2018-10-06T06:10:49.101Z,1007.59
2018-10-06T06:11:49.014Z,1007.63
2018-10-06T06:12:48.943Z,1007.61
2018-10-06T06:13:48.852Z,1007.60
2018-10-06T06:14:48.764Z,1007.62
2018-10-06T06:15:48.781Z,1007.54
2018-10-06T06:16:48.602Z,1007.54
2018-10-06T06:17:48.527Z,1007.55
2018-10-06T06:18:48.441Z,1007.49
2018-10-06T06:19:48.352Z,1007.47
2018-10-06T06:20:48.279Z,1007.45
2018-10-06T06:21:48.190Z,1007.40
2018-10-06T06:22:48.158Z,1007.47
2018-10-06T06:23:48.048Z,1007.38
2018-10-06T06:24:47.941Z,1007.39
2018-10-06T06:25:47.854Z,1007.39
2018-10-06T06:26:47.778Z,1007.37
2018-10-06T06:27:47.691Z,1007.38
2018-10-06T06:28:47.617Z,1007.35
2018-10-06T06:29:47.542Z,1007.31
2018-10-06T06:30:47.447Z,1007.30
2018-10-06T06:31:47.369Z,1007.33
2018-10-06T06:32:47.278Z,1007.32
2018-10-06T06:33:47.192Z,1007.33
2018-10-06T06:34:47.119Z,1007.39
2018-10-06T06:35:47.043Z,1007.42
2018-10-06T06:36:46.954Z,1007.44
2018-10-06T06:37:46.868Z,1007.50
2018-10-06T06:38:46.779Z,1007.47
2018-10-06T06:39:46.706Z,1007.53
2018-10-06T06:40:46.617Z,1007.53
2018-10-06T06:41:46.543Z,1007.53
2018-10-06T06:42:46.454Z,1007.50
2018-10-06T06:43:46.458Z,1007.53
2018-10-06T06:44:46.293Z,1007.49
2018-10-06T06:45:46.205Z,1007.48
2018-10-06T06:46:46.120Z,1007.46
2018-10-06T06:47:46.044Z,1007.53
2018-10-06T06:48:45.958Z,1007.52
2018-10-06T06:49:45.880Z,1007.51
2018-10-06T06:50:45.794Z,1007.53
2018-10-06T06:51:45.705Z,1007.55
2018-10-06T06:52:45.630Z,1007.52
2018-10-06T06:53:45.552Z,1007.56
2018-10-06T06:54:45.487Z,1007.59
2018-10-06T06:55:45.382Z,1007.57
2018-10-06T06:56:45.294Z,1007.55
2018-10-06T06:57:45.220Z,1007.48
2018-10-06T06:58:45.131Z,1007.51
2018-10-06T06:59:45.045Z,1007.49
2018-10-06T07:00:44.975Z,1007.51
2018-10-06T07:01:44.882Z,1007.53
2018-10-06T07:02:44.807Z,1007.48
2018-10-06T07:03:44.720Z,1007.49
2018-10-06T07:04:44.645Z,1007.47
2018-10-06T07:05:44.625Z,1007.48
2018-10-06T07:06:44.473Z,1007.46
2018-10-06T07:07:44.396Z,1007.52
2018-10-06T07:08:44.312Z,1007.46
2018-10-06T07:09:44.232Z,1007.42
2018-10-06T07:10:44.145Z,1007.49
2018-10-06T07:11:44.058Z,1007.47
2018-10-06T07:12:44.010Z,1007.46
2018-10-06T07:13:43.899Z,1007.48
2018-10-06T07:14:43.822Z,1007.57
2018-10-06T07:15:43.733Z,1007.57
2018-10-06T07:16:43.660Z,1007.56
2018-10-06T07:17:43.571Z,1007.55
2018-10-06T07:18:43.485Z,1007.58
2018-10-06T07:19:43.409Z,1007.61
2018-10-06T07:20:43.322Z,1007.59
2018-10-06T07:21:43.251Z,1007.61
2018-10-06T07:22:43.159Z,1007.54
2018-10-06T07:23:43.084Z,1007.53
2018-10-06T07:24:42.997Z,1007.54
2018-10-06T07:25:42.928Z,1007.54
2018-10-06T07:26:42.834Z,1007.55
2018-10-06T07:27:42.761Z,1007.56
2018-10-06T07:28:42.677Z,1007.58
2018-10-06T07:29:42.598Z,1007.52
2018-10-06T07:30:42.524Z,1007.52
2018-10-06T07:31:42.435Z,1007.53
2018-10-06T07:32:42.350Z,1007.54
2018-10-06T07:33:42.273Z,1007.49
2018-10-06T07:34:42.185Z,1007.50
2018-10-06T07:35:42.111Z,1007.46
2018-10-06T07:36:42.024Z,1007.46
2018-10-06T07:37:41.949Z,1007.42
2018-10-06T07:38:41.861Z,1007.40
2018-10-06T07:39:41.787Z,1007.38
2018-10-06T07:40:41.711Z,1007.39
2018-10-06T07:41:41.625Z,1007.38
2018-10-06T07:42:41.550Z,1007.35
2018-10-06T07:43:41.461Z,1007.37
2018-10-06T07:44:41.401Z,1007.34
2018-10-06T07:45:41.300Z,1007.31
2018-10-06T07:46:41.226Z,1007.31
2018-10-06T07:47:41.151Z,1007.26
2018-10-06T07:48:41.062Z,1007.27
2018-10-06T07:49:40.977Z,1007.25
2018-10-06T07:50:40.901Z,1007.27
2018-10-06T07:51:40.812Z,1007.25
2018-10-06T07:52:40.752Z,1007.25
2018-10-06T07:53:40.652Z,1007.27
2018-10-06T07:54:40.577Z,1007.25
2018-10-06T07:55:40.488Z,1007.29
2018-10-06T07:56:40.417Z,1007.29
2018-10-06T07:57:40.328Z,1007.27
2018-10-06T07:58:40.252Z,1007.26
2018-10-06T07:59:40.164Z,1007.26
2018-10-06T08:00:40.092Z,1007.27
2018-10-06T08:01:40.014Z,1007.27
2018-10-06T08:02:39.928Z,1007.32
2018-10-06T08:03:39.852Z,1007.29
2018-10-06T08:04:39.767Z,1007.30
2018-10-06T08:05:39.678Z,1007.26
2018-10-06T08:06:39.605Z,1007.23
2018-10-06T08:07:39.514Z,1007.25
2018-10-06T08:08:39.440Z,1007.28
2018-10-06T08:09:39.353Z,1007.26
2018-10-06T08:10:39.284Z,1007.30
2018-10-06T08:11:39.190Z,1007.30
2018-10-06T08:12:39.114Z,1007.33
2018-10-06T08:13:39.040Z,1007.30
2018-10-06T08:14:38.952Z,1007.34
2018-10-06T08:15:38.878Z,1007.34
2018-10-06T08:16:38.789Z,1007.32
2018-10-06T08:17:38.715Z,1007.25
2018-10-06T08:18:38.629Z,1007.23
2018-10-06T08:19:38.554Z,1007.23
2018-10-06T08:20:38.467Z,1007.24
2018-10-06T08:21:38.407Z,1007.21
2018-10-06T08:22:38.316Z,1007.18
2018-10-06T08:23:38.231Z,1007.20
2018-10-06T08:24:38.154Z,1007.18
2018-10-06T08:25:38.079Z,1007.20
2018-10-06T08:26:37.992Z,1007.24
2018-10-06T08:27:37.917Z,1007.24
2018-10-06T08:28:37.842Z,1007.22
2018-10-06T08:29:37.758Z,1007.24
2018-10-06T08:30:37.683Z,1007.23
2018-10-06T08:31:37.604Z,1007.27
2018-10-06T08:32:37.517Z,1007.26
2018-10-06T08:33:37.442Z,1007.26
2018-10-06T08:34:37.367Z,1007.21
2018-10-06T08:35:37.291Z,1007.23
2018-10-06T08:36:37.208Z,1007.20
2018-10-06T08:37:37.134Z,1007.23
2018-10-06T08:38:37.056Z,1007.27
2018-10-06T08:39:36.968Z,1007.21
2018-10-06T08:40:36.893Z,1007.18
2018-10-06T08:41:36.830Z,1007.22
2018-10-06T08:42:36.795Z,1007.22
2018-10-06T08:43:36.656Z,1007.23
2018-10-06T08:44:36.581Z,1007.24
2018-10-06T08:45:36.510Z,1007.20
2018-10-06T08:46:36.432Z,1007.15
2018-10-06T08:47:36.357Z,1007.13
2018-10-06T08:48:36.270Z,1007.11
2018-10-06T08:49:36.230Z,1007.12
2018-10-06T08:50:36.119Z,1007.05
2018-10-06T08:51:36.044Z,1007.10
2018-10-06T08:52:35.982Z,1007.05
2018-10-06T08:53:35.894Z,1007.08
2018-10-06T08:54:35.818Z,1007.12
2018-10-06T08:55:35.732Z,1007.08
2018-10-06T08:56:35.661Z,1007.11
2018-10-06T08:57:35.583Z,1007.07
2018-10-06T08:58:35.510Z,1007.06
2018-10-06T08:59:35.420Z,1007.02
2018-10-06T09:00:35.345Z,1007.07
2018-10-06T09:01:35.270Z,1007.00
2018-10-06T09:02:35.197Z,1007.07
2018-10-06T09:03:35.122Z,1007.04
2018-10-06T09:04:35.033Z,1007.00
2018-10-06T09:05:34.961Z,1007.02
2018-10-06T09:06:34.884Z,1007.03
2018-10-06T09:07:34.813Z,1007.00
2018-10-06T09:08:34.734Z,1006.94
2018-10-06T09:09:34.647Z,1006.97
2018-10-06T09:10:34.572Z,1006.95
2018-10-06T09:11:34.496Z,1006.91
2018-10-06T09:12:34.426Z,1006.92
2018-10-06T09:13:34.334Z,1006.91
2018-10-06T09:14:34.261Z,1006.93
2018-10-06T09:15:34.185Z,1006.88
2018-10-06T09:16:34.101Z,1006.87
2018-10-06T09:17:34.022Z,1006.84
2018-10-06T09:18:33.947Z,1006.85
2018-10-06T09:19:33.886Z,1006.85
2018-10-06T09:20:33.787Z,1006.84
2018-10-06T09:21:33.710Z,1006.83
2018-10-06T09:22:33.636Z,1006.79
2018-10-06T09:23:33.549Z,1006.80
2018-10-06T09:24:33.474Z,1006.82
2018-10-06T09:25:33.397Z,1006.82
2018-10-06T09:26:33.323Z,1006.78
2018-10-06T09:27:33.238Z,1006.76
2018-10-06T09:28:33.165Z,1006.78
2018-10-06T09:29:33.086Z,1006.74
2018-10-06T09:30:32.998Z,1006.72
2018-10-06T09:31:32.926Z,1006.70
2018-10-06T09:32:32.851Z,1006.75
2018-10-06T09:33:32.766Z,1006.70
2018-10-06T09:34:32.686Z,1006.71
2018-10-06T09:35:32.612Z,1006.74
2018-10-06T09:36:32.527Z,1006.72
2018-10-06T09:37:32.450Z,1006.72
2018-10-06T09:38:32.374Z,1006.70
2018-10-06T09:39:32.315Z,1006.74
2018-10-06T09:40:32.217Z,1006.76
2018-10-06T09:41:32.138Z,1006.68
2018-10-06T09:42:32.086Z,1006.68
2018-10-06T09:43:31.974Z,1006.68
2018-10-06T09:44:31.913Z,1006.61
2018-10-06T09:45:31.825Z,1006.62
2018-10-06T09:46:31.738Z,1006.69
2018-10-06T09:47:31.664Z,1006.66
2018-10-06T09:48:31.590Z,1006.72
2018-10-06T09:49:31.514Z,1006.70
2018-10-06T09:50:31.425Z,1006.72
2018-10-06T09:51:31.351Z,1006.70
2018-10-06T09:52:31.275Z,1006.69
2018-10-06T09:53:31.231Z,1006.67
2018-10-06T09:54:31.115Z,1006.66
2018-10-06T09:55:31.043Z,1006.68
2018-10-06T09:56:30.964Z,1006.66
2018-10-06T09:57:30.877Z,1006.64
2018-10-06T09:58:30.815Z,1006.67
2018-10-06T09:59:30.798Z,1006.62
2018-10-06T10:00:30.640Z,1006.59
2018-10-06T10:01:30.565Z,1006.61
2018-10-06T10:02:30.490Z,1006.59
2018-10-06T10:03:30.403Z,1006.61
2018-10-06T10:04:30.327Z,1006.58
2018-10-06T10:05:30.354Z,1006.57
2018-10-06T10:06:30.177Z,1006.55
2018-10-06T10:07:30.100Z,1006.54
2018-10-06T10:08:30.018Z,1006.50
2018-10-06T10:09:29.986Z,1006.51
2018-10-06T10:10:29.866Z,1006.51
2018-10-06T10:11:29.788Z,1006.50
2018-10-06T10:12:29.713Z,1006.48
2018-10-06T10:13:29.628Z,1006.48
2018-10-06T10:14:29.542Z,1006.47
2018-10-06T10:15:29.573Z,1006.51
2018-10-06T10:16:29.391Z,1006.51
2018-10-06T10:17:29.394Z,1006.44
2018-10-06T10:18:29.335Z,1006.48
2018-10-06T10:19:29.154Z,1006.48
2018-10-06T10:20:29.079Z,1006.41
2018-10-06T10:21:29.004Z,1006.46
2018-10-06T10:22:29.052Z,1006.44
2018-10-06T10:23:28.899Z,1006.43
2018-10-06T10:24:28.768Z,1006.44
2018-10-06T10:25:28.693Z,1006.43
2018-10-06T10:26:28.610Z,1006.42
2018-10-06T10:27:28.529Z,1006.43
2018-10-06T10:28:28.540Z,1006.46
2018-10-06T10:29:28.393Z,1006.45
2018-10-06T10:30:28.306Z,1006.46
2018-10-06T10:31:28.219Z,1006.44
2018-10-06T10:32:28.144Z,1006.46
2018-10-06T10:33:28.068Z,1006.43
2018-10-06T10:34:28.048Z,1006.42
2018-10-06T10:35:27.920Z,1006.35
2018-10-06T10:36:27.844Z,1006.40
2018-10-06T10:37:27.790Z,1006.38
2018-10-06T10:38:27.686Z,1006.36
2018-10-06T10:39:27.670Z,1006.34
2018-10-06T10:40:27.544Z,1006.32
2018-10-06T10:41:27.456Z,1006.26
2018-10-06T10:42:27.382Z,1006.27
2018-10-06T10:43:27.306Z,1006.29
2018-10-06T10:44:27.254Z,1006.29
2018-10-06T10:45:27.145Z,1006.30
2018-10-06T10:46:27.070Z,1006.30
2018-10-06T10:47:26.995Z,1006.26
2018-10-06T10:48:26.962Z,1006.29
2018-10-06T10:49:26.892Z,1006.23
2018-10-06T10:50:26.773Z,1006.24
2018-10-06T10:51:26.696Z,1006.30
2018-10-06T10:52:26.621Z,1006.23
2018-10-06T10:53:26.546Z,1006.26
2018-10-06T10:54:26.519Z,1006.25
2018-10-06T10:55:26.466Z,1006.26
2018-10-06T10:56:26.323Z,1006.27
2018-10-06T10:57:26.247Z,1006.29
2018-10-06T10:58:26.165Z,1006.31
2018-10-06T10:59:26.109Z,1006.31
2018-10-06T11:00:26.028Z,1006.29
2018-10-06T11:01:25.934Z,1006.35
2018-10-06T11:02:25.859Z,1006.25
2018-10-06T11:03:25.783Z,1006.31
2018-10-06T11:04:25.709Z,1006.28
2018-10-06T11:05:25.635Z,1006.36
2018-10-06T11:06:25.562Z,1006.30
2018-10-06T11:07:25.485Z,1006.26
2018-10-06T11:08:25.409Z,1006.22
2018-10-06T11:09:25.335Z,1006.19
2018-10-06T11:10:25.261Z,1006.15
2018-10-06T11:11:25.195Z,1006.14
2018-10-06T11:12:25.124Z,1006.24
2018-10-06T11:13:25.035Z,1006.16
2018-10-06T11:14:24.964Z,1006.07
2018-10-06T11:15:24.889Z,1006.06
2018-10-06T11:16:24.823Z,1006.07
2018-10-06T11:17:24.736Z,1006.04
2018-10-06T11:18:24.661Z,1006.03
2018-10-06T11:19:24.585Z,1006.09
2018-10-06T11:20:24.511Z,1006.09
2018-10-06T11:21:24.437Z,1006.08
2018-10-06T11:22:24.362Z,1006.05
2018-10-06T11:23:24.286Z,1006.06
2018-10-06T11:24:24.218Z,1005.99
2018-10-06T11:25:24.136Z,1006.00
2018-10-06T11:26:24.062Z,1005.91
2018-10-06T11:27:23.988Z,1005.92
2018-10-06T11:28:23.928Z,1005.89
2018-10-06T11:29:23.837Z,1005.85
2018-10-06T11:30:23.762Z,1005.87
2018-10-06T11:31:23.687Z,1005.86
2018-10-06T11:32:23.613Z,1005.82
2018-10-06T11:33:23.538Z,1005.87
2018-10-06T11:34:23.464Z,1005.82
2018-10-06T11:35:23.389Z,1005.80
2018-10-06T11:36:23.326Z,1005.78
2018-10-06T11:37:23.310Z,1005.75
2018-10-06T11:38:23.181Z,1005.77
2018-10-06T11:39:23.100Z,1005.72
2018-10-06T11:40:23.026Z,1005.69
2018-10-06T11:41:22.953Z,1005.68
2018-10-06T11:42:22.876Z,1005.70
2018-10-06T11:43:22.801Z,1005.66
2018-10-06T11:44:22.727Z,1005.66
2018-10-06T11:45:22.651Z,1005.61
2018-10-06T11:46:22.578Z,1005.66
2018-10-06T11:47:22.502Z,1005.61
2018-10-06T11:48:22.427Z,1005.54
2018-10-06T11:49:22.352Z,1005.54
2018-10-06T11:50:22.334Z,1005.51
2018-10-06T11:51:22.202Z,1005.55
2018-10-06T11:52:22.133Z,1005.52
2018-10-06T11:53:22.052Z,1005.55
2018-10-06T11:54:21.977Z,1005.52
2018-10-06T11:55:21.903Z,1005.52
2018-10-06T11:56:21.833Z,1005.53
2018-10-06T11:57:21.752Z,1005.50
2018-10-06T11:58:21.680Z,1005.48
2018-10-06T11:59:21.603Z,1005.44
2018-10-06T12:00:21.707Z,1005.46
2018-10-06T12:01:21.466Z,1005.46
2018-10-06T12:02:21.390Z,1005.47
2018-10-06T12:03:21.316Z,1005.47
2018-10-06T12:04:21.241Z,1005.39